Terminal Aerodrome Forecast
Issued by NWS Charleston, WV

Home | Current Version | Previous Version | Text Only | Print | Product List | Glossary On
Versions: 1 2 3 4 5 6 7 8 9 10 11 12 13 14 15 16 17 18 19 20 21 22 23
870
FTUS41 KRLX 040238 AAA
TAFPKB
TAF AMD
KPKB 040238Z 0403/0424 00000KT P6SM OVC040
     FM040600 00000KT P6SM BKN200
     FM042000 10004KT P6SM OVC045=

USA.gov is the U.S. government's official web portal to all federal, state and local government web resources and services.